sensor_id;sensor_type;location;lat;lon;timestamp;pressure;altitude;pressure_sealevel;temperature;humidity
9277;BME280;4676;42.678;23.244;2022-11-04T00:01:22;94230.16;;;11.12;nan
9277;BME280;4676;42.678;23.244;2022-11-04T00:03:49;94232.19;;;11.03;nan
9277;BME280;4676;42.678;23.244;2022-11-04T00:06:17;94230.88;;;10.93;nan
9277;BME280;4676;42.678;23.244;2022-11-04T00:08:47;94222.63;;;10.88;nan
9277;BME280;4676;42.678;23.244;2022-11-04T00:11:14;94232.19;;;10.82;nan
9277;BME280;4676;42.678;23.244;2022-11-04T00:13:58;94223.28;;;10.72;nan
9277;BME280;4676;42.678;23.244;2022-11-04T00:16:25;94229.59;;;10.62;nan
9277;BME280;4676;42.678;23.244;2022-11-04T00:19:09;94233.72;;;10.64;nan
9277;BME280;4676;42.678;23.244;2022-11-04T00:21:37;94227.34;;;10.76;nan
9277;BME280;4676;42.678;23.244;2022-11-04T00:24:22;94223.69;;;10.83;nan
9277;BME280;4676;42.678;23.244;2022-11-04T00:27:07;94221.50;;;10.74;nan
9277;BME280;4676;42.678;23.244;2022-11-04T00:29:51;94224.41;;;10.65;nan
9277;BME280;4676;42.678;23.244;2022-11-04T00:32:17;94221.03;;;10.64;nan
9277;BME280;4676;42.678;23.244;2022-11-04T00:35:02;94209.91;;;10.68;nan
9277;BME280;4676;42.678;23.244;2022-11-04T00:37:30;94213.91;;;10.74;nan
9277;BME280;4676;42.678;23.244;2022-11-04T00:39:57;94209.25;;;10.63;nan
9277;BME280;4676;42.678;23.244;2022-11-04T00:42:23;94212.84;;;10.58;nan
9277;BME280;4676;42.678;23.244;2022-11-04T00:44:50;94209.06;;;10.46;nan
9277;BME280;4676;42.678;23.244;2022-11-04T00:47:17;94201.81;;;10.37;nan
9277;BME280;4676;42.678;23.244;2022-11-04T00:49:43;94200.91;;;10.38;nan
9277;BME280;4676;42.678;23.244;2022-11-04T00:52:10;94193.75;;;10.49;nan
9277;BME280;4676;42.678;23.244;2022-11-04T00:54:38;94189.16;;;10.37;nan
9277;BME280;4676;42.678;23.244;2022-11-04T00:57:08;94196.75;;;10.37;nan
9277;BME280;4676;42.678;23.244;2022-11-04T00:59:34;94197.31;;;10.22;nan
9277;BME280;4676;42.678;23.244;2022-11-04T01:02:01;94189.13;;;10.15;nan
9277;BME280;4676;42.678;23.244;2022-11-04T01:04:28;94188.97;;;10.20;nan
9277;BME280;4676;42.678;23.244;2022-11-04T01:06:55;94190.56;;;10.22;nan
9277;BME280;4676;42.678;23.244;2022-11-04T01:09:22;94193.59;;;10.07;nan
9277;BME280;4676;42.678;23.244;2022-11-04T01:11:50;94186.72;;;10.11;nan
9277;BME280;4676;42.678;23.244;2022-11-04T01:14:17;94188.50;;;10.09;nan
9277;BME280;4676;42.678;23.244;2022-11-04T01:16:44;94175.75;;;10.10;nan
9277;BME280;4676;42.678;23.244;2022-11-04T01:19:11;94168.75;;;9.95;nan
9277;BME280;4676;42.678;23.244;2022-11-04T01:21:38;94168.06;;;9.90;nan
9277;BME280;4676;42.678;23.244;2022-11-04T01:24:05;94158.19;;;9.84;nan
9277;BME280;4676;42.678;23.244;2022-11-04T01:26:32;94165.38;;;9.94;nan
9277;BME280;4676;42.678;23.244;2022-11-04T01:29:00;94160.56;;;9.88;nan
9277;BME280;4676;42.678;23.244;2022-11-04T01:31:29;94157.63;;;9.76;nan
9277;BME280;4676;42.678;23.244;2022-11-04T01:33:56;94153.44;;;9.75;nan
9277;BME280;4676;42.678;23.244;2022-11-04T01:36:24;94167.75;;;9.76;nan
9277;BME280;4676;42.678;23.244;2022-11-04T01:38:53;94163.16;;;9.85;nan
9277;BME280;4676;42.678;23.244;2022-11-04T01:41:23;94168.16;;;9.88;nan
9277;BME280;4676;42.678;23.244;2022-11-04T01:43:52;94166.53;;;9.86;nan
9277;BME280;4676;42.678;23.244;2022-11-04T01:46:36;94163.63;;;9.96;nan
9277;BME280;4676;42.678;23.244;2022-11-04T01:49:17;94162.78;;;9.73;nan
9277;BME280;4676;42.678;23.244;2022-11-04T01:51:50;94077.56;;;9.28;nan
9277;BME280;4676;42.678;23.244;2022-11-04T01:54:19;94133.25;;;9.50;nan
9277;BME280;4676;42.678;23.244;2022-11-04T01:56:47;94152.72;;;9.71;nan
9277;BME280;4676;42.678;23.244;2022-11-04T01:59:18;94155.66;;;9.84;nan
9277;BME280;4676;42.678;23.244;2022-11-04T02:01:48;94152.84;;;9.68;nan
9277;BME280;4676;42.678;23.244;2022-11-04T02:04:15;94149.47;;;9.68;nan
9277;BME280;4676;42.678;23.244;2022-11-04T02:06:53;94142.06;;;9.63;nan
9277;BME280;4676;42.678;23.244;2022-11-04T02:09:22;94143.16;;;9.56;nan
9277;BME280;4676;42.678;23.244;2022-11-04T02:11:49;94137.31;;;9.54;nan
9277;BME280;4676;42.678;23.244;2022-11-04T02:14:35;94147.91;;;9.40;nan
9277;BME280;4676;42.678;23.244;2022-11-04T02:17:15;94122.28;;;9.26;nan
9277;BME280;4676;42.678;23.244;2022-11-04T02:20:15;94136.00;;;9.44;nan
9277;BME280;4676;42.678;23.244;2022-11-04T02:22:58;94139.72;;;9.57;nan
9277;BME280;4676;42.678;23.244;2022-11-04T02:25:47;94137.66;;;9.45;nan
9277;BME280;4676;42.678;23.244;2022-11-04T02:28:32;94130.94;;;9.44;nan
9277;BME280;4676;42.678;23.244;2022-11-04T02:31:11;94135.41;;;9.36;nan
9277;BME280;4676;42.678;23.244;2022-11-04T02:33:41;94099.06;;;9.15;nan
9277;BME280;4676;42.678;23.244;2022-11-04T02:36:17;94125.00;;;9.45;nan
9277;BME280;4676;42.678;23.244;2022-11-04T02:38:51;94129.16;;;9.23;nan
9277;BME280;4676;42.678;23.244;2022-11-04T02:41:29;94137.72;;;9.19;nan
9277;BME280;4676;42.678;23.244;2022-11-04T02:44:07;94127.19;;;9.06;nan
9277;BME280;4676;42.678;23.244;2022-11-04T02:46:47;94134.03;;;9.04;nan
9277;BME280;4676;42.678;23.244;2022-11-04T02:49:18;94135.63;;;9.07;nan
9277;BME280;4676;42.678;23.244;2022-11-04T02:51:49;94067.22;;;8.86;nan
9277;BME280;4676;42.678;23.244;2022-11-04T02:54:23;94112.75;;;9.10;nan
9277;BME280;4676;42.678;23.244;2022-11-04T02:56:53;94130.31;;;9.14;nan
9277;BME280;4676;42.678;23.244;2022-11-04T02:59:25;94127.16;;;9.08;nan
9277;BME280;4676;42.678;23.244;2022-11-04T03:01:55;94132.72;;;9.17;nan
9277;BME280;4676;42.678;23.244;2022-11-04T03:04:27;94104.69;;;8.98;nan
9277;BME280;4676;42.678;23.244;2022-11-04T03:06:57;94123.59;;;8.88;nan
9277;BME280;4676;42.678;23.244;2022-11-04T03:09:26;94128.97;;;9.04;nan
9277;BME280;4676;42.678;23.244;2022-11-04T03:11:57;94123.69;;;9.10;nan
9277;BME280;4676;42.678;23.244;2022-11-04T03:14:30;94132.09;;;9.11;nan
9277;BME280;4676;42.678;23.244;2022-11-04T03:17:03;94126.44;;;9.04;nan
9277;BME280;4676;42.678;23.244;2022-11-04T03:19:38;94047.53;;;8.45;nan
9277;BME280;4676;42.678;23.244;2022-11-04T03:22:09;94105.41;;;8.77;nan
9277;BME280;4676;42.678;23.244;2022-11-04T03:24:38;94120.56;;;8.77;nan
9277;BME280;4676;42.678;23.244;2022-11-04T03:27:09;94124.19;;;8.95;nan
9277;BME280;4676;42.678;23.244;2022-11-04T03:29:45;94124.81;;;9.01;nan
9277;BME280;4676;42.678;23.244;2022-11-04T03:32:21;94125.06;;;8.94;nan
9277;BME280;4676;42.678;23.244;2022-11-04T03:34:50;94125.28;;;8.88;nan
9277;BME280;4676;42.678;23.244;2022-11-04T03:37:17;94128.41;;;8.94;nan
9277;BME280;4676;42.678;23.244;2022-11-04T03:39:44;94133.47;;;8.94;nan
9277;BME280;4676;42.678;23.244;2022-11-04T03:42:12;94127.69;;;8.91;nan
9277;BME280;4676;42.678;23.244;2022-11-04T03:44:49;94126.41;;;8.79;nan
9277;BME280;4676;42.678;23.244;2022-11-04T03:47:19;94120.44;;;8.56;nan
9277;BME280;4676;42.678;23.244;2022-11-04T03:49:47;94127.53;;;8.71;nan
9277;BME280;4676;42.678;23.244;2022-11-04T03:52:15;94111.06;;;8.59;nan
9277;BME280;4676;42.678;23.244;2022-11-04T03:54:43;94117.06;;;8.81;nan
9277;BME280;4676;42.678;23.244;2022-11-04T03:57:26;94123.34;;;8.70;nan
9277;BME280;4676;42.678;23.244;2022-11-04T04:00:10;94108.53;;;8.59;nan
9277;BME280;4676;42.678;23.244;2022-11-04T04:02:48;94117.66;;;8.63;nan
9277;BME280;4676;42.678;23.244;2022-11-04T04:05:20;94113.44;;;8.64;nan
9277;BME280;4676;42.678;23.244;2022-11-04T04:07:52;94105.44;;;8.51;nan
9277;BME280;4676;42.678;23.244;2022-11-04T04:10:27;94116.31;;;8.53;nan
9277;BME280;4676;42.678;23.244;2022-11-04T04:13:20;94115.34;;;8.57;nan
9277;BME280;4676;42.678;23.244;2022-11-04T04:15:52;94114.38;;;8.61;nan
9277;BME280;4676;42.678;23.244;2022-11-04T04:18:28;94058.28;;;8.24;nan
9277;BME280;4676;42.678;23.244;2022-11-04T04:20:58;94108.63;;;8.56;nan
9277;BME280;4676;42.678;23.244;2022-11-04T04:23:29;94111.16;;;8.56;nan
9277;BME280;4676;42.678;23.244;2022-11-04T04:26:18;94111.16;;;8.56;nan
9277;BME280;4676;42.678;23.244;2022-11-04T04:29:04;94110.53;;;8.49;nan
9277;BME280;4676;42.678;23.244;2022-11-04T04:34:06;94101.88;;;8.57;nan
9277;BME280;4676;42.678;23.244;2022-11-04T04:36:47;94081.09;;;8.22;nan
9277;BME280;4676;42.678;23.244;2022-11-04T04:39:18;94109.66;;;8.50;nan
9277;BME280;4676;42.678;23.244;2022-11-04T04:42:04;94112.03;;;8.29;nan
9277;BME280;4676;42.678;23.244;2022-11-04T04:44:48;94107.00;;;8.29;nan
9277;BME280;4676;42.678;23.244;2022-11-04T04:47:33;94107.88;;;8.26;nan
9277;BME280;4676;42.678;23.244;2022-11-04T04:50:04;94116.22;;;8.30;nan
9277;BME280;4676;42.678;23.244;2022-11-04T04:52:33;94119.72;;;8.24;nan
9277;BME280;4676;42.678;23.244;2022-11-04T04:55:02;94118.56;;;8.36;nan
9277;BME280;4676;42.678;23.244;2022-11-04T04:57:29;94106.88;;;8.32;nan
9277;BME280;4676;42.678;23.244;2022-11-04T04:59:55;94118.47;;;8.37;nan
9277;BME280;4676;42.678;23.244;2022-11-04T05:02:22;94122.41;;;8.47;nan
9277;BME280;4676;42.678;23.244;2022-11-04T05:04:49;94113.78;;;8.27;nan
9277;BME280;4676;42.678;23.244;2022-11-04T05:07:17;94117.25;;;8.23;nan
9277;BME280;4676;42.678;23.244;2022-11-04T05:09:44;94119.69;;;8.26;nan
9277;BME280;4676;42.678;23.244;2022-11-04T05:12:10;94116.31;;;8.25;nan
9277;BME280;4676;42.678;23.244;2022-11-04T05:14:37;94112.94;;;8.26;nan
9277;BME280;4676;42.678;23.244;2022-11-04T05:17:04;94120.75;;;8.19;nan
9277;BME280;4676;42.678;23.244;2022-11-04T05:19:31;94118.69;;;8.31;nan
9277;BME280;4676;42.678;23.244;2022-11-04T05:21:57;94120.38;;;8.31;nan
9277;BME280;4676;42.678;23.244;2022-11-04T05:24:26;94115.88;;;8.40;nan
9277;BME280;4676;42.678;23.244;2022-11-04T05:26:53;94125.25;;;8.37;nan
9277;BME280;4676;42.678;23.244;2022-11-04T05:29:19;94129.63;;;8.32;nan
9277;BME280;4676;42.678;23.244;2022-11-04T05:31:46;94136.66;;;8.48;nan
9277;BME280;4676;42.678;23.244;2022-11-04T05:34:13;94140.06;;;8.47;nan
9277;BME280;4676;42.678;23.244;2022-11-04T05:36:40;94134.88;;;8.52;nan
9277;BME280;4676;42.678;23.244;2022-11-04T05:39:10;94143.47;;;8.46;nan
9277;BME280;4676;42.678;23.244;2022-11-04T05:41:39;94140.75;;;8.52;nan
9277;BME280;4676;42.678;23.244;2022-11-04T05:44:07;94144.00;;;8.56;nan
9277;BME280;4676;42.678;23.244;2022-11-04T05:46:34;94149.88;;;8.57;nan
9277;BME280;4676;42.678;23.244;2022-11-04T05:49:01;94155.66;;;8.60;nan
9277;BME280;4676;42.678;23.244;2022-11-04T05:51:28;94148.06;;;8.62;nan
9277;BME280;4676;42.678;23.244;2022-11-04T05:53:55;94158.56;;;8.74;nan
9277;BME280;4676;42.678;23.244;2022-11-04T05:56:21;94156.53;;;8.85;nan
9277;BME280;4676;42.678;23.244;2022-11-04T05:58:49;94153.81;;;8.91;nan
9277;BME280;4676;42.678;23.244;2022-11-04T06:01:27;94150.25;;;8.97;nan
9277;BME280;4676;42.678;23.244;2022-11-04T06:03:55;94155.84;;;9.07;nan
9277;BME280;4676;42.678;23.244;2022-11-04T06:06:23;94126.00;;;8.91;nan
9277;BME280;4676;42.678;23.244;2022-11-04T06:08:50;94153.06;;;9.14;nan
9277;BME280;4676;42.678;23.244;2022-11-04T06:11:18;94152.88;;;9.19;nan
9277;BME280;4676;42.678;23.244;2022-11-04T06:13:45;94144.88;;;9.31;nan
9277;BME280;4676;42.678;23.244;2022-11-04T06:16:13;94154.63;;;9.41;nan
9277;BME280;4676;42.678;23.244;2022-11-04T06:18:40;94154.56;;;9.43;nan
9277;BME280;4676;42.678;23.244;2022-11-04T06:21:19;94157.88;;;9.45;nan
9277;BME280;4676;42.678;23.244;2022-11-04T06:23:47;94155.84;;;9.54;nan
9277;BME280;4676;42.678;23.244;2022-11-04T06:26:14;94132.38;;;9.51;nan
9277;BME280;4676;42.678;23.244;2022-11-04T06:28:41;94153.72;;;9.67;nan
9277;BME280;4676;42.678;23.244;2022-11-04T06:31:09;94156.41;;;9.63;nan
9277;BME280;4676;42.678;23.244;2022-11-04T06:33:38;94166.53;;;9.86;nan
9277;BME280;4676;42.678;23.244;2022-11-04T06:36:06;94144.53;;;9.88;nan
9277;BME280;4676;42.678;23.244;2022-11-04T06:38:35;94159.97;;;10.03;nan
9277;BME280;4676;42.678;23.244;2022-11-04T06:41:03;94161.34;;;10.12;nan
9277;BME280;4676;42.678;23.244;2022-11-04T06:43:30;94168.94;;;10.12;nan
9277;BME280;4676;42.678;23.244;2022-11-04T06:45:58;94161.75;;;10.01;nan
9277;BME280;4676;42.678;23.244;2022-11-04T06:48:25;94164.41;;;9.98;nan
9277;BME280;4676;42.678;23.244;2022-11-04T06:50:53;94169.22;;;10.04;nan
9277;BME280;4676;42.678;23.244;2022-11-04T06:53:19;94156.56;;;10.04;nan
9277;BME280;4676;42.678;23.244;2022-11-04T06:55:46;94156.69;;;10.01;nan
9277;BME280;4676;42.678;23.244;2022-11-04T06:58:13;94150.63;;;10.06;nan
9277;BME280;4676;42.678;23.244;2022-11-04T07:00:40;94149.81;;;10.05;nan
9277;BME280;4676;42.678;23.244;2022-11-04T07:03:08;94151.97;;;10.16;nan
9277;BME280;4676;42.678;23.244;2022-11-04T07:05:44;94156.16;;;10.17;nan
9277;BME280;4676;42.678;23.244;2022-11-04T07:08:17;94155.41;;;10.13;nan
9277;BME280;4676;42.678;23.244;2022-11-04T07:10:44;94148.19;;;10.26;nan
9277;BME280;4676;42.678;23.244;2022-11-04T07:13:11;94144.00;;;10.25;nan
9277;BME280;4676;42.678;23.244;2022-11-04T07:15:38;94147.22;;;10.30;nan
9277;BME280;4676;42.678;23.244;2022-11-04T07:18:05;94139.25;;;10.39;nan
9277;BME280;4676;42.678;23.244;2022-11-04T07:20:32;94142.06;;;10.53;nan
9277;BME280;4676;42.678;23.244;2022-11-04T07:22:59;94139.25;;;10.61;nan
9277;BME280;4676;42.678;23.244;2022-11-04T07:25:27;94136.81;;;10.58;nan
9277;BME280;4676;42.678;23.244;2022-11-04T07:27:54;94139.78;;;10.69;nan
9277;BME280;4676;42.678;23.244;2022-11-04T07:30:21;94138.88;;;10.70;nan
9277;BME280;4676;42.678;23.244;2022-11-04T07:32:47;94130.25;;;10.74;nan
9277;BME280;4676;42.678;23.244;2022-11-04T07:35:14;94129.00;;;10.84;nan
9277;BME280;4676;42.678;23.244;2022-11-04T07:37:41;94131.69;;;11.01;nan
9277;BME280;4676;42.678;23.244;2022-11-04T07:40:09;94132.50;;;11.01;nan
9277;BME280;4676;42.678;23.244;2022-11-04T07:42:37;94128.63;;;10.93;nan
9277;BME280;4676;42.678;23.244;2022-11-04T07:45:05;94128.00;;;10.88;nan
9277;BME280;4676;42.678;23.244;2022-11-04T07:47:32;94119.63;;;11.06;nan
9277;BME280;4676;42.678;23.244;2022-11-04T07:49:59;94121.81;;;11.15;nan
9277;BME280;4676;42.678;23.244;2022-11-04T07:52:26;94113.56;;;11.10;nan
9277;BME280;4676;42.678;23.244;2022-11-04T07:54:52;94119.84;;;11.22;nan
9277;BME280;4676;42.678;23.244;2022-11-04T07:57:19;94113.91;;;11.41;nan
9277;BME280;4676;42.678;23.244;2022-11-04T07:59:48;94111.09;;;11.47;nan
9277;BME280;4676;42.678;23.244;2022-11-04T08:02:14;94110.72;;;11.57;nan
9277;BME280;4676;42.678;23.244;2022-11-04T08:04:41;94115.00;;;11.54;nan
9277;BME280;4676;42.678;23.244;2022-11-04T08:07:08;94094.84;;;11.51;nan
9277;BME280;4676;42.678;23.244;2022-11-04T08:09:35;94105.91;;;11.69;nan
9277;BME280;4676;42.678;23.244;2022-11-04T08:12:03;94100.81;;;11.71;nan
9277;BME280;4676;42.678;23.244;2022-11-04T08:14:31;94091.94;;;11.79;nan
9277;BME280;4676;42.678;23.244;2022-11-04T08:16:59;94095.13;;;11.84;nan
9277;BME280;4676;42.678;23.244;2022-11-04T08:19:26;94082.81;;;11.94;nan
9277;BME280;4676;42.678;23.244;2022-11-04T08:21:53;94087.13;;;12.11;nan
9277;BME280;4676;42.678;23.244;2022-11-04T08:24:19;94084.09;;;12.21;nan
9277;BME280;4676;42.678;23.244;2022-11-04T08:26:46;94083.53;;;12.33;nan
9277;BME280;4676;42.678;23.244;2022-11-04T08:29:13;94052.66;;;12.24;nan
9277;BME280;4676;42.678;23.244;2022-11-04T08:31:40;94074.13;;;12.52;nan
9277;BME280;4676;42.678;23.244;2022-11-04T08:34:08;94069.50;;;12.61;nan
9277;BME280;4676;42.678;23.244;2022-11-04T08:36:36;94067.44;;;12.69;nan
9277;BME280;4676;42.678;23.244;2022-11-04T08:39:05;94068.63;;;12.79;nan
9277;BME280;4676;42.678;23.244;2022-11-04T08:41:33;94062.28;;;12.87;nan
9277;BME280;4676;42.678;23.244;2022-11-04T08:44:02;94056.19;;;13.07;nan
9277;BME280;4676;42.678;23.244;2022-11-04T08:46:31;94059.56;;;13.25;nan
9277;BME280;4676;42.678;23.244;2022-11-04T08:48:58;94065.91;;;13.33;nan
9277;BME280;4676;42.678;23.244;2022-11-04T08:51:27;94066.47;;;13.38;nan
9277;BME280;4676;42.678;23.244;2022-11-04T08:53:55;94063.53;;;13.46;nan
9277;BME280;4676;42.678;23.244;2022-11-04T08:56:23;94060.00;;;13.48;nan
9277;BME280;4676;42.678;23.244;2022-11-04T08:58:51;94030.44;;;13.46;nan
9277;BME280;4676;42.678;23.244;2022-11-04T09:01:19;94053.06;;;13.68;nan
9277;BME280;4676;42.678;23.244;2022-11-04T09:03:47;94053.72;;;13.87;nan
9277;BME280;4676;42.678;23.244;2022-11-04T09:06:15;94049.53;;;14.01;nan
9277;BME280;4676;42.678;23.244;2022-11-04T09:08:45;94051.84;;;14.06;nan
9277;BME280;4676;42.678;23.244;2022-11-04T09:11:14;94050.44;;;14.16;nan
9277;BME280;4676;42.678;23.244;2022-11-04T09:13:41;94017.47;;;13.97;nan
9277;BME280;4676;42.678;23.244;2022-11-04T09:16:09;94037.78;;;14.15;nan
9277;BME280;4676;42.678;23.244;2022-11-04T09:18:37;94027.75;;;14.12;nan
9277;BME280;4676;42.678;23.244;2022-11-04T09:21:04;94034.91;;;14.21;nan
9277;BME280;4676;42.678;23.244;2022-11-04T09:23:31;94027.34;;;14.35;nan
9277;BME280;4676;42.678;23.244;2022-11-04T09:26:05;94023.63;;;14.40;nan
9277;BME280;4676;42.678;23.244;2022-11-04T09:28:32;94023.63;;;14.40;nan
9277;BME280;4676;42.678;23.244;2022-11-04T09:31:04;94022.34;;;14.63;nan
9277;BME280;4676;42.678;23.244;2022-11-04T09:33:31;94011.81;;;14.83;nan
9277;BME280;4676;42.678;23.244;2022-11-04T09:35:58;94008.19;;;14.87;nan
9277;BME280;4676;42.678;23.244;2022-11-04T09:38:25;94000.16;;;14.93;nan
9277;BME280;4676;42.678;23.244;2022-11-04T09:40:52;93995.91;;;15.08;nan
9277;BME280;4676;42.678;23.244;2022-11-04T09:43:29;93998.66;;;15.19;nan
9277;BME280;4676;42.678;23.244;2022-11-04T09:45:58;93986.06;;;15.30;nan
9277;BME280;4676;42.678;23.244;2022-11-04T09:48:30;93987.50;;;15.20;nan
9277;BME280;4676;42.678;23.244;2022-11-04T09:51:00;93976.94;;;15.26;nan
9277;BME280;4676;42.678;23.244;2022-11-04T09:53:35;93965.66;;;15.30;nan
9277;BME280;4676;42.678;23.244;2022-11-04T09:56:10;93967.16;;;15.47;nan
9277;BME280;4676;42.678;23.244;2022-11-04T09:58:40;93965.81;;;15.56;nan
9277;BME280;4676;42.678;23.244;2022-11-04T10:01:17;93972.53;;;15.71;nan
9277;BME280;4676;42.678;23.244;2022-11-04T10:03:53;93967.66;;;15.80;nan
9277;BME280;4676;42.678;23.244;2022-11-04T10:06:34;93954.34;;;15.89;nan
9277;BME280;4676;42.678;23.244;2022-11-04T10:09:10;93949.72;;;15.94;nan
9277;BME280;4676;42.678;23.244;2022-11-04T10:11:45;93955.19;;;16.03;nan
9277;BME280;4676;42.678;23.244;2022-11-04T10:14:27;93947.09;;;15.96;nan
9277;BME280;4676;42.678;23.244;2022-11-04T10:17:09;93942.63;;;15.99;nan
9277;BME280;4676;42.678;23.244;2022-11-04T10:19:57;93938.13;;;16.03;nan
9277;BME280;4676;42.678;23.244;2022-11-04T10:22:31;93931.72;;;16.10;nan
9277;BME280;4676;42.678;23.244;2022-11-04T10:25:06;93919.69;;;16.25;nan
9277;BME280;4676;42.678;23.244;2022-11-04T10:27:37;93915.06;;;16.17;nan
9277;BME280;4676;42.678;23.244;2022-11-04T10:30:13;93912.91;;;16.24;nan
9277;BME280;4676;42.678;23.244;2022-11-04T10:32:51;93914.16;;;16.31;nan
9277;BME280;4676;42.678;23.244;2022-11-04T10:35:27;93908.00;;;16.33;nan
9277;BME280;4676;42.678;23.244;2022-11-04T10:37:58;93891.69;;;16.36;nan
9277;BME280;4676;42.678;23.244;2022-11-04T10:40:32;93896.78;;;16.48;nan
9277;BME280;4676;42.678;23.244;2022-11-04T10:43:08;93888.91;;;16.52;nan
9277;BME280;4676;42.678;23.244;2022-11-04T10:45:41;93882.69;;;16.56;nan
9277;BME280;4676;42.678;23.244;2022-11-04T10:48:13;93876.25;;;16.63;nan
9277;BME280;4676;42.678;23.244;2022-11-04T10:50:48;93869.69;;;16.71;nan
9277;BME280;4676;42.678;23.244;2022-11-04T10:53:18;93866.63;;;16.79;nan
9277;BME280;4676;42.678;23.244;2022-11-04T10:55:49;93861.72;;;16.76;nan
9277;BME280;4676;42.678;23.244;2022-11-04T10:58:22;93856.50;;;16.77;nan
9277;BME280;4676;42.678;23.244;2022-11-04T11:00:51;93850.16;;;16.70;nan
9277;BME280;4676;42.678;23.244;2022-11-04T11:03:24;93843.28;;;16.83;nan
9277;BME280;4676;42.678;23.244;2022-11-04T11:05:52;93840.50;;;16.99;nan
9277;BME280;4676;42.678;23.244;2022-11-04T11:08:28;93829.53;;;17.10;nan
9277;BME280;4676;42.678;23.244;2022-11-04T11:10:55;93837.16;;;17.22;nan
9277;BME280;4676;42.678;23.244;2022-11-04T11:13:24;93832.66;;;17.26;nan
9277;BME280;4676;42.678;23.244;2022-11-04T11:16:04;93819.22;;;17.22;nan
9277;BME280;4676;42.678;23.244;2022-11-04T11:18:31;93819.00;;;17.25;nan
9277;BME280;4676;42.678;23.244;2022-11-04T11:21:07;93810.69;;;17.34;nan
9277;BME280;4676;42.678;23.244;2022-11-04T11:23:40;93803.41;;;17.41;nan
9277;BME280;4676;42.678;23.244;2022-11-04T11:26:08;93778.84;;;17.26;nan
9277;BME280;4676;42.678;23.244;2022-11-04T11:28:35;93804.75;;;17.34;nan
9277;BME280;4676;42.678;23.244;2022-11-04T11:31:08;93779.53;;;17.40;nan
9277;BME280;4676;42.678;23.244;2022-11-04T11:33:45;93782.19;;;17.39;nan
9277;BME280;4676;42.678;23.244;2022-11-04T11:36:17;93774.06;;;17.45;nan
9277;BME280;4676;42.678;23.244;2022-11-04T11:38:57;93772.53;;;17.42;nan
9277;BME280;4676;42.678;23.244;2022-11-04T11:41:26;93776.63;;;17.45;nan
9277;BME280;4676;42.678;23.244;2022-11-04T11:44:05;93755.53;;;17.41;nan
9277;BME280;4676;42.678;23.244;2022-11-04T11:46:35;93763.16;;;17.54;nan
9277;BME280;4676;42.678;23.244;2022-11-04T11:49:22;93754.03;;;17.50;nan
9277;BME280;4676;42.678;23.244;2022-11-04T11:51:50;93752.22;;;17.52;nan
9277;BME280;4676;42.678;23.244;2022-11-04T11:54:22;93751.25;;;17.53;nan
9277;BME280;4676;42.678;23.244;2022-11-04T11:56:50;93740.03;;;17.43;nan
9277;BME280;4676;42.678;23.244;2022-11-04T11:59:34;93748.91;;;17.50;nan
9277;BME280;4676;42.678;23.244;2022-11-04T12:02:19;93745.66;;;17.48;nan
9277;BME280;4676;42.678;23.244;2022-11-04T12:04:48;93708.44;;;17.31;nan
9277;BME280;4676;42.678;23.244;2022-11-04T12:07:24;93726.19;;;17.45;nan
9277;BME280;4676;42.678;23.244;2022-11-04T12:09:56;93734.69;;;17.46;nan
9277;BME280;4676;42.678;23.244;2022-11-04T12:12:42;93736.78;;;17.41;nan
9277;BME280;4676;42.678;23.244;2022-11-04T12:15:28;93738.53;;;17.40;nan
9277;BME280;4676;42.678;23.244;2022-11-04T12:18:23;93737.94;;;17.37;nan
9277;BME280;4676;42.678;23.244;2022-11-04T12:20:57;93737.72;;;17.40;nan
9277;BME280;4676;42.678;23.244;2022-11-04T12:23:28;93715.09;;;17.58;nan
9277;BME280;4676;42.678;23.244;2022-11-04T12:26:08;93716.41;;;17.74;nan
9277;BME280;4676;42.678;23.244;2022-11-04T12:28:48;93723.63;;;17.80;nan
9277;BME280;4676;42.678;23.244;2022-11-04T12:31:24;93728.31;;;17.75;nan
9277;BME280;4676;42.678;23.244;2022-11-04T12:34:03;93720.63;;;17.75;nan
9277;BME280;4676;42.678;23.244;2022-11-04T12:36:49;93727.97;;;17.91;nan
9277;BME280;4676;42.678;23.244;2022-11-04T12:39:40;93721.09;;;17.91;nan
9277;BME280;4676;42.678;23.244;2022-11-04T12:42:15;93722.16;;;17.89;nan
9277;BME280;4676;42.678;23.244;2022-11-04T12:44:48;93706.41;;;17.82;nan
9277;BME280;4676;42.678;23.244;2022-11-04T12:47:29;93714.84;;;18.07;nan
9277;BME280;4676;42.678;23.244;2022-11-04T12:50:15;93711.47;;;18.06;nan
9277;BME280;4676;42.678;23.244;2022-11-04T12:52:59;93704.81;;;18.04;nan
9277;BME280;4676;42.678;23.244;2022-11-04T12:55:37;93710.88;;;18.03;nan
9277;BME280;4676;42.678;23.244;2022-11-04T12:58:18;93704.69;;;18.05;nan
9277;BME280;4676;42.678;23.244;2022-11-04T13:00:56;93708.91;;;18.17;nan
9277;BME280;4676;42.678;23.244;2022-11-04T13:03:29;93710.56;;;18.18;nan
9277;BME280;4676;42.678;23.244;2022-11-04T13:06:02;93711.69;;;18.03;nan
9277;BME280;4676;42.678;23.244;2022-11-04T13:08:36;93706.47;;;18.05;nan
9277;BME280;4676;42.678;23.244;2022-11-04T13:11:09;93708.78;;;17.96;nan
9277;BME280;4676;42.678;23.244;2022-11-04T13:13:51;93717.97;;;17.99;nan
9277;BME280;4676;42.678;23.244;2022-11-04T13:16:20;93713.31;;;17.93;nan
9277;BME280;4676;42.678;23.244;2022-11-04T13:18:48;93701.91;;;17.97;nan
9277;BME280;4676;42.678;23.244;2022-11-04T13:21:20;93724.22;;;17.84;nan
9277;BME280;4676;42.678;23.244;2022-11-04T13:23:51;93703.84;;;17.82;nan
9277;BME280;4676;42.678;23.244;2022-11-04T13:26:20;93713.78;;;17.87;nan
9277;BME280;4676;42.678;23.244;2022-11-04T13:28:52;93716.78;;;17.81;nan
9277;BME280;4676;42.678;23.244;2022-11-04T13:31:31;93708.06;;;17.94;nan
9277;BME280;4676;42.678;23.244;2022-11-04T13:34:08;93712.97;;;18.09;nan
9277;BME280;4676;42.678;23.244;2022-11-04T13:36:42;93712.97;;;18.20;nan
9277;BME280;4676;42.678;23.244;2022-11-04T13:39:16;93704.03;;;18.25;nan
9277;BME280;4676;42.678;23.244;2022-11-04T13:42:01;93706.59;;;18.25;nan
9277;BME280;4676;42.678;23.244;2022-11-04T13:44:36;93704.38;;;18.21;nan
9277;BME280;4676;42.678;23.244;2022-11-04T13:47:12;93704.81;;;18.04;nan
9277;BME280;4676;42.678;23.244;2022-11-04T13:49:40;93699.78;;;17.91;nan
9277;BME280;4676;42.678;23.244;2022-11-04T13:52:10;93699.41;;;17.84;nan
9277;BME280;4676;42.678;23.244;2022-11-04T13:54:40;93681.59;;;17.72;nan
9277;BME280;4676;42.678;23.244;2022-11-04T13:57:11;93675.84;;;17.57;nan
9277;BME280;4676;42.678;23.244;2022-11-04T13:59:39;93684.53;;;17.55;nan
9277;BME280;4676;42.678;23.244;2022-11-04T14:02:37;93691.41;;;17.54;nan
9277;BME280;4676;42.678;23.244;2022-11-04T14:08:19;93679.50;;;17.53;nan